createdAt,value
2023-01-26T00:00:32.953Z,100104.00
2023-01-26T00:02:06.142Z,100109.19
2023-01-26T00:03:40.677Z,100113.47
2023-01-26T00:05:14.058Z,100114.34
2023-01-26T00:06:47.154Z,100118.72
2023-01-26T00:08:20.403Z,100104.81
2023-01-26T00:09:53.670Z,100117.91
2023-01-26T00:11:29.517Z,100119.66
2023-01-26T00:13:02.609Z,100112.66
2023-01-26T00:14:50.140Z,100109.22
2023-01-26T00:16:24.064Z,100096.94
2023-01-26T00:17:57.513Z,100103.03
2023-01-26T00:19:32.072Z,100104.84
2023-01-26T00:21:06.042Z,100101.31
2023-01-26T00:22:39.157Z,100091.75
2023-01-26T00:24:12.642Z,100090.03
2023-01-26T00:25:45.799Z,100097.00
2023-01-26T00:27:19.263Z,100103.09
2023-01-26T00:28:52.929Z,100098.69
2023-01-26T00:30:26.158Z,100091.69
2023-01-26T00:31:58.377Z,100088.22
2023-01-26T00:33:31.684Z,100096.00
2023-01-26T00:35:07.502Z,100086.50
2023-01-26T00:36:42.881Z,100087.38
2023-01-26T00:38:16.100Z,100076.94
2023-01-26T00:39:49.413Z,100078.69
2023-01-26T00:41:40.740Z,100081.28
2023-01-26T00:43:15.463Z,100065.56
2023-01-26T00:44:48.699Z,100077.00
2023-01-26T00:46:21.081Z,100070.06
2023-01-26T00:47:54.298Z,100080.50
2023-01-26T00:49:26.627Z,100068.28
2023-01-26T00:51:01.163Z,100066.50
2023-01-26T00:52:34.778Z,100066.50
2023-01-26T00:54:06.873Z,100067.38
2023-01-26T00:55:40.122Z,100058.66
2023-01-26T00:57:13.279Z,100062.19
2023-01-26T00:58:48.242Z,100055.25
2023-01-26T01:00:21.416Z,100054.34
2023-01-26T01:01:54.013Z,100050.94
2023-01-26T01:03:27.400Z,100055.25
2023-01-26T01:05:00.839Z,100055.28
2023-01-26T01:06:34.320Z,100046.63
2023-01-26T01:08:07.911Z,100044.88
2023-01-26T01:09:41.321Z,100036.19
2023-01-26T01:11:14.873Z,100023.97
2023-01-26T01:12:50.419Z,100037.81
2023-01-26T01:14:23.662Z,100029.13
2023-01-26T01:15:55.788Z,100036.06
2023-01-26T01:17:29.181Z,100034.34
2023-01-26T01:19:02.398Z,100036.94
2023-01-26T01:20:35.552Z,100033.50
2023-01-26T01:22:10.371Z,100042.19
2023-01-26T01:23:43.742Z,100040.44
2023-01-26T01:25:17.489Z,100043.03
2023-01-26T01:26:50.796Z,100043.00
2023-01-26T01:28:22.929Z,100043.84
2023-01-26T01:29:56.628Z,100034.31
2023-01-26T01:31:29.496Z,100023.03
2023-01-26T01:33:02.863Z,100030.91
2023-01-26T01:34:35.973Z,100022.19
2023-01-26T01:36:11.890Z,100022.19
2023-01-26T01:37:46.389Z,100016.06
2023-01-26T01:39:19.681Z,100013.50
2023-01-26T01:40:52.113Z,100013.50
2023-01-26T01:42:25.673Z,100015.28
2023-01-26T01:44:16.214Z,100010.03
2023-01-26T01:45:49.411Z,100011.75
2023-01-26T01:47:26.958Z,100015.19
2023-01-26T01:49:04.037Z,100009.03
2023-01-26T01:50:39.635Z,100011.69
2023-01-26T01:52:17.670Z,100010.78
2023-01-26T01:53:53.907Z,100008.22
2023-01-26T01:55:26.330Z,100003.06
2023-01-26T01:57:04.508Z,100004.75
2023-01-26T01:58:41.887Z,100001.22
2023-01-26T02:00:18.668Z,100001.25
2023-01-26T02:01:54.858Z,99999.50
2023-01-26T02:03:29.483Z,99989.97
2023-01-26T02:05:20.429Z,99987.41
2023-01-26T02:06:56.550Z,99994.34
2023-01-26T02:08:34.810Z,99984.75
2023-01-26T02:10:18.991Z,99989.13
2023-01-26T02:11:52.469Z,99986.53
2023-01-26T02:13:26.020Z,99993.47
2023-01-26T02:15:00.023Z,99991.69
2023-01-26T02:16:33.391Z,99983.88
2023-01-26T02:18:06.131Z,99980.34
2023-01-26T02:19:50.169Z,99979.50
2023-01-26T02:21:25.049Z,99973.38
2023-01-26T02:23:03.202Z,99961.22
2023-01-26T02:24:40.753Z,99959.47
2023-01-26T02:26:17.477Z,99972.53
2023-01-26T02:27:50.800Z,99972.53
2023-01-26T02:29:24.170Z,99978.66
2023-01-26T02:30:57.239Z,99974.28
2023-01-26T02:32:30.898Z,99969.97
2023-01-26T02:34:04.112Z,99966.50
2023-01-26T02:35:36.387Z,99966.50
2023-01-26T02:37:14.969Z,99964.78
2023-01-26T02:38:56.864Z,99975.19
2023-01-26T02:40:37.585Z,99956.03
2023-01-26T02:42:30.296Z,99963.03
2023-01-26T02:44:04.526Z,99954.38
2023-01-26T02:45:39.849Z,99947.38
2023-01-26T02:47:16.240Z,99948.22
2023-01-26T02:49:07.006Z,99947.25
2023-01-26T02:50:39.143Z,99945.56
2023-01-26T02:52:13.009Z,99945.59
2023-01-26T02:53:46.396Z,99956.03
2023-01-26T02:55:25.615Z,99939.53
2023-01-26T02:56:58.294Z,99943.91
2023-01-26T02:58:32.827Z,99941.31
2023-01-26T03:00:07.475Z,99941.31
2023-01-26T03:01:43.792Z,99924.84
2023-01-26T03:03:20.839Z,99927.44
2023-01-26T03:04:52.967Z,99924.00
2023-01-26T03:06:26.371Z,99910.94
2023-01-26T03:07:59.920Z,99909.19
2023-01-26T03:09:38.412Z,99924.00
2023-01-26T03:11:11.583Z,99924.00
2023-01-26T03:12:44.161Z,99917.94
2023-01-26T03:14:19.227Z,99914.47
2023-01-26T03:15:54.633Z,99906.66
2023-01-26T03:17:29.306Z,99908.34
2023-01-26T03:19:20.801Z,99907.50
2023-01-26T03:21:11.302Z,99904.84
2023-01-26T03:23:10.132Z,99914.41
2023-01-26T03:25:01.580Z,99900.50
2023-01-26T03:26:53.859Z,99890.00
2023-01-26T03:28:28.079Z,99895.25
2023-01-26T03:30:03.088Z,99898.72
2023-01-26T03:31:36.415Z,99897.84
2023-01-26T03:33:09.783Z,99898.75
2023-01-26T03:34:43.145Z,99897.00
2023-01-26T03:36:15.715Z,99890.06
2023-01-26T03:37:55.069Z,99884.91
2023-01-26T03:40:03.953Z,99893.56
2023-01-26T03:41:55.165Z,99886.59
2023-01-26T03:43:46.149Z,99889.16
2023-01-26T03:45:38.376Z,99880.50
2023-01-26T03:47:29.343Z,99883.97
2023-01-26T03:49:20.075Z,99883.09
2023-01-26T03:51:14.398Z,99882.19
2023-01-26T03:53:05.783Z,99883.09
2023-01-26T03:54:56.666Z,99872.69
2023-01-26T03:56:33.607Z,99872.66
2023-01-26T03:58:12.107Z,99876.97
2023-01-26T03:59:45.282Z,99868.25
2023-01-26T04:01:28.276Z,99869.13
2023-01-26T04:03:22.104Z,99879.63
2023-01-26T04:05:13.369Z,99870.06
2023-01-26T04:07:08.821Z,99860.56
2023-01-26T04:08:44.446Z,99860.47
2023-01-26T04:10:17.870Z,99862.22
2023-01-26T04:11:51.347Z,99862.25
2023-01-26T04:13:43.085Z,99857.91
2023-01-26T04:15:38.819Z,99858.81
2023-01-26T04:17:31.457Z,99855.31
2023-01-26T04:19:22.370Z,99855.31
2023-01-26T04:21:13.383Z,99855.31
2023-01-26T04:22:49.004Z,99842.28
2023-01-26T04:24:24.675Z,99837.09
2023-01-26T04:26:02.026Z,99832.72
2023-01-26T04:27:35.961Z,99834.44
2023-01-26T04:29:12.389Z,99835.31
2023-01-26T04:30:46.272Z,99825.72
2023-01-26T04:32:21.832Z,99830.09
2023-01-26T04:33:55.086Z,99827.50
2023-01-26T04:35:28.388Z,99843.19
2023-01-26T04:37:01.605Z,99839.69
2023-01-26T04:38:46.605Z,99840.56
2023-01-26T04:40:22.683Z,99842.31
2023-01-26T04:41:55.307Z,99832.72
2023-01-26T04:43:28.815Z,99818.78
2023-01-26T04:45:02.268Z,99829.25
2023-01-26T04:46:36.832Z,99830.97
2023-01-26T04:48:12.051Z,99824.91
2023-01-26T04:49:45.142Z,99831.03
2023-01-26T04:51:22.361Z,99824.06
2023-01-26T04:52:56.239Z,99831.03
2023-01-26T04:54:29.676Z,99836.25
2023-01-26T04:56:03.279Z,99824.09
2023-01-26T04:57:36.891Z,99814.53
2023-01-26T04:59:12.232Z,99826.72
2023-01-26T05:00:52.227Z,99820.59
2023-01-26T05:02:25.444Z,99822.34
2023-01-26T05:04:02.335Z,99822.34
2023-01-26T05:05:38.022Z,99825.81
2023-01-26T05:07:11.235Z,99828.41
2023-01-26T05:08:44.899Z,99821.44
2023-01-26T05:10:18.971Z,99821.47
2023-01-26T05:12:38.454Z,99817.09
2023-01-26T05:14:31.821Z,99809.28
2023-01-26T05:16:14.071Z,99810.16
2023-01-26T05:18:06.936Z,99806.63
2023-01-26T05:19:47.815Z,99813.59
2023-01-26T05:21:39.929Z,99806.59
2023-01-26T05:23:13.182Z,99797.03
2023-01-26T05:25:12.187Z,99805.69
2023-01-26T05:27:15.916Z,99803.09
2023-01-26T05:28:49.351Z,99796.13
2023-01-26T05:30:22.857Z,99790.94
2023-01-26T05:31:57.084Z,99791.81
2023-01-26T05:33:30.689Z,99786.53
2023-01-26T05:35:07.910Z,99792.69
2023-01-26T05:36:41.358Z,99788.28
2023-01-26T05:38:14.851Z,99784.84
2023-01-26T05:39:48.451Z,99790.03
2023-01-26T05:41:21.836Z,99783.06
2023-01-26T05:43:17.888Z,99789.19
2023-01-26T05:45:10.172Z,99790.91
2023-01-26T05:46:46.703Z,99784.81
2023-01-26T05:48:19.866Z,99771.75
2023-01-26T05:49:55.362Z,99783.91
2023-01-26T05:51:34.217Z,99769.16
2023-01-26T05:53:08.440Z,99771.75
2023-01-26T05:54:43.641Z,99767.38
2023-01-26T05:56:16.734Z,99769.13
2023-01-26T05:57:55.205Z,99776.94
2023-01-26T05:59:28.861Z,99770.00
2023-01-26T06:01:05.731Z,99759.59
2023-01-26T06:02:48.654Z,99764.78
2023-01-26T06:04:23.673Z,99757.84
2023-01-26T06:06:00.202Z,99753.47
2023-01-26T06:07:44.662Z,99767.38
2023-01-26T06:09:45.217Z,99761.31
2023-01-26T06:11:26.751Z,99749.16
2023-01-26T06:13:32.426Z,99756.09
2023-01-26T06:15:30.246Z,99764.81
2023-01-26T06:17:03.476Z,99744.81
2023-01-26T06:18:36.745Z,99749.13
2023-01-26T06:20:14.721Z,99739.59
2023-01-26T06:21:53.516Z,99740.44
2023-01-26T06:23:28.744Z,99736.97
2023-01-26T06:25:05.335Z,99740.47
2023-01-26T06:26:39.345Z,99743.97
2023-01-26T06:28:12.542Z,99739.66
2023-01-26T06:29:46.226Z,99737.03
2023-01-26T06:31:19.844Z,99737.06
2023-01-26T06:32:53.657Z,99733.59
2023-01-26T06:34:27.773Z,99732.72
2023-01-26T06:36:03.455Z,99732.72
2023-01-26T06:37:37.119Z,99736.19
2023-01-26T06:39:13.661Z,99737.03
2023-01-26T06:40:46.889Z,99736.16
2023-01-26T06:42:20.890Z,99745.75
2023-01-26T06:43:54.546Z,99723.13
2023-01-26T06:45:27.880Z,99728.38
2023-01-26T06:47:01.583Z,99728.34
2023-01-26T06:48:37.080Z,99724.88
2023-01-26T06:50:12.274Z,99728.38
2023-01-26T06:52:04.327Z,99728.38
2023-01-26T06:53:57.120Z,99728.41
2023-01-26T06:55:41.827Z,99726.66
2023-01-26T06:57:34.161Z,99724.09
2023-01-26T06:59:17.775Z,99719.75
2023-01-26T07:00:54.008Z,99717.13
2023-01-26T07:02:39.771Z,99723.25
2023-01-26T07:04:12.960Z,99728.44
2023-01-26T07:05:46.136Z,99717.13
2023-01-26T07:07:19.310Z,99717.16
2023-01-26T07:08:52.595Z,99720.59
2023-01-26T07:10:25.679Z,99723.19
2023-01-26T07:12:00.171Z,99718.88
2023-01-26T07:13:33.484Z,99718.00
2023-01-26T07:15:07.549Z,99718.91
2023-01-26T07:16:40.730Z,99718.00
2023-01-26T07:18:13.983Z,99702.34
2023-01-26T07:19:47.097Z,99711.03
2023-01-26T07:21:20.478Z,99700.63
2023-01-26T07:22:53.951Z,99707.59
2023-01-26T07:24:27.459Z,99704.97
2023-01-26T07:26:00.919Z,99697.13
2023-01-26T07:27:35.525Z,99709.31
2023-01-26T07:29:08.858Z,99700.63
2023-01-26T07:30:42.149Z,99687.56
2023-01-26T07:32:15.244Z,99697.13
2023-01-26T07:33:48.611Z,99701.50
2023-01-26T07:35:21.740Z,99693.66
2023-01-26T07:36:54.967Z,99692.78
2023-01-26T07:38:29.033Z,99679.72
2023-01-26T07:40:02.465Z,99680.63
2023-01-26T07:41:35.763Z,99682.38
2023-01-26T07:43:20.751Z,99687.59
2023-01-26T07:44:54.862Z,99684.09
2023-01-26T07:46:28.111Z,99674.56
2023-01-26T07:48:01.237Z,99679.78
2023-01-26T07:49:34.504Z,99673.69
2023-01-26T07:51:09.223Z,99672.81
2023-01-26T07:52:43.770Z,99666.72
2023-01-26T07:54:16.923Z,99662.34
2023-01-26T07:55:50.565Z,99657.13
2023-01-26T07:57:23.704Z,99658.00
2023-01-26T07:58:58.347Z,99655.38
2023-01-26T08:00:31.692Z,99654.53
2023-01-26T08:02:05.106Z,99664.97
2023-01-26T08:03:38.260Z,99659.75
2023-01-26T08:05:11.990Z,99663.22
2023-01-26T08:06:45.385Z,99659.75
2023-01-26T08:08:19.721Z,99657.13
2023-01-26T08:09:53.045Z,99667.59
2023-01-26T08:11:26.957Z,99662.38
2023-01-26T08:13:00.386Z,99660.59
2023-01-26T08:14:46.492Z,99651.03
2023-01-26T08:16:20.440Z,99652.78
2023-01-26T08:17:55.328Z,99655.38
2023-01-26T08:19:28.481Z,99653.63
2023-01-26T08:21:01.708Z,99658.84
2023-01-26T08:22:35.021Z,99664.06
2023-01-26T08:24:08.641Z,99660.59
2023-01-26T08:25:41.819Z,99665.81
2023-01-26T08:27:16.380Z,99662.31
2023-01-26T08:28:49.987Z,99663.19
2023-01-26T08:30:24.637Z,99657.09
2023-01-26T08:31:57.944Z,99660.59
2023-01-26T08:33:32.702Z,99658.81
2023-01-26T08:35:06.420Z,99655.31
2023-01-26T08:36:40.497Z,99657.03
2023-01-26T08:38:13.596Z,99644.84
2023-01-26T08:39:46.913Z,99651.81
2023-01-26T08:41:20.234Z,99657.03
2023-01-26T08:42:54.330Z,99653.53
2023-01-26T08:44:27.451Z,99650.03
2023-01-26T08:46:02.582Z,99626.56
2023-01-26T08:47:35.811Z,99639.56
2023-01-26T08:49:10.125Z,99633.41
2023-01-26T08:50:46.232Z,99636.06
2023-01-26T08:52:19.423Z,99623.84
2023-01-26T08:53:54.501Z,99630.84
2023-01-26T08:55:28.636Z,99620.31
2023-01-26T08:57:01.770Z,99615.09
2023-01-26T08:58:35.301Z,99618.59
2023-01-26T09:00:09.883Z,99625.56
2023-01-26T09:01:44.903Z,99615.97
2023-01-26T09:03:18.163Z,99626.44
2023-01-26T09:04:51.467Z,99618.63
2023-01-26T09:06:25.307Z,99621.28
2023-01-26T09:07:58.505Z,99622.16
2023-01-26T09:09:31.625Z,99623.88
2023-01-26T09:11:07.407Z,99617.78
2023-01-26T09:12:41.217Z,99618.59
2023-01-26T09:14:14.589Z,99610.75
2023-01-26T09:15:47.796Z,99618.53
2023-01-26T09:17:22.313Z,99615.88
2023-01-26T09:18:55.700Z,99616.72
2023-01-26T09:20:29.901Z,99607.06
2023-01-26T09:22:03.048Z,99611.41
2023-01-26T09:23:37.766Z,99607.94
2023-01-26T09:25:12.219Z,99605.25
2023-01-26T09:26:45.637Z,99603.50
2023-01-26T09:28:18.788Z,99604.34
2023-01-26T09:29:52.497Z,99601.72
2023-01-26T09:31:25.948Z,99602.59
2023-01-26T09:33:01.260Z,99600.78
2023-01-26T09:34:34.504Z,99600.78
2023-01-26T09:36:10.027Z,99600.91
2023-01-26T09:37:44.581Z,99598.28
2023-01-26T09:39:18.229Z,99604.31
2023-01-26T09:41:04.225Z,99597.31
2023-01-26T09:42:46.845Z,99588.53
2023-01-26T09:44:24.980Z,99571.91
2023-01-26T09:46:07.757Z,99572.78
2023-01-26T09:47:53.684Z,99569.25
2023-01-26T09:49:37.195Z,99558.75
2023-01-26T09:51:15.333Z,99565.75
2023-01-26T09:52:53.711Z,99555.31
2023-01-26T09:54:32.884Z,99557.09
2023-01-26T09:56:06.674Z,99555.31
2023-01-26T09:57:49.001Z,99543.19
2023-01-26T09:59:32.040Z,99548.44
2023-01-26T10:01:06.775Z,99539.72
2023-01-26T10:02:56.685Z,99537.88
2023-01-26T10:04:37.035Z,99540.47
2023-01-26T10:06:18.228Z,99532.50
2023-01-26T10:08:13.812Z,99533.28
2023-01-26T10:09:50.070Z,99518.41
2023-01-26T10:11:28.832Z,99525.31
2023-01-26T10:13:02.774Z,99522.69
2023-01-26T10:14:40.746Z,99513.09
2023-01-26T10:16:16.494Z,99515.78
2023-01-26T10:17:52.995Z,99518.41
2023-01-26T10:19:37.523Z,99514.88
2023-01-26T10:21:11.899Z,99503.50
2023-01-26T10:22:47.111Z,99507.81
2023-01-26T10:24:23.927Z,99501.59
2023-01-26T10:26:03.434Z,99502.22
2023-01-26T10:27:36.566Z,99502.16
2023-01-26T10:29:16.403Z,99500.50
2023-01-26T10:30:51.394Z,99498.81
2023-01-26T10:32:24.660Z,99500.50
2023-01-26T10:34:00.916Z,99488.25
2023-01-26T10:35:35.452Z,99486.56
2023-01-26T10:37:21.965Z,99481.41
2023-01-26T10:38:55.270Z,99485.84
2023-01-26T10:40:28.440Z,99476.38
2023-01-26T10:42:03.063Z,99477.34
2023-01-26T10:43:39.649Z,99473.00
2023-01-26T10:45:27.091Z,99473.84
2023-01-26T10:47:06.705Z,99473.13
2023-01-26T10:48:39.919Z,99468.72
2023-01-26T10:50:23.578Z,99468.09
2023-01-26T10:52:09.924Z,99461.16
2023-01-26T10:53:43.377Z,99469.00
2023-01-26T10:55:21.899Z,99468.09
2023-01-26T10:56:57.823Z,99451.44
2023-01-26T10:58:46.264Z,99455.78
2023-01-26T11:00:28.836Z,99451.50
2023-01-26T11:02:04.473Z,99450.75
2023-01-26T11:03:37.602Z,99449.94
2023-01-26T11:05:21.731Z,99442.09
2023-01-26T11:06:55.097Z,99449.13
2023-01-26T11:08:37.704Z,99442.06
2023-01-26T11:10:23.581Z,99431.72
2023-01-26T11:12:00.722Z,99435.13
2023-01-26T11:13:33.863Z,99419.47
2023-01-26T11:15:16.467Z,99418.53
2023-01-26T11:16:55.569Z,99415.03
2023-01-26T11:18:42.784Z,99414.97
2023-01-26T11:20:44.532Z,99404.47
2023-01-26T11:22:20.833Z,99401.84
2023-01-26T11:24:05.131Z,99393.06
2023-01-26T11:25:50.066Z,99392.19
2023-01-26T11:27:34.812Z,99382.63
2023-01-26T11:29:41.817Z,99388.78
2023-01-26T11:31:33.071Z,99375.66
2023-01-26T11:33:15.616Z,99386.88
2023-01-26T11:35:00.295Z,99386.88
2023-01-26T11:36:44.583Z,99385.97
2023-01-26T11:38:36.817Z,99384.16
2023-01-26T11:40:31.712Z,99372.78
2023-01-26T11:42:21.306Z,99364.06
2023-01-26T11:44:16.139Z,99370.09
2023-01-26T11:46:05.341Z,99368.47
2023-01-26T11:47:56.110Z,99372.00
2023-01-26T11:49:49.035Z,99361.50
2023-01-26T11:51:34.007Z,99363.38
2023-01-26T11:53:38.807Z,99353.84
2023-01-26T11:55:29.812Z,99348.59
2023-01-26T11:57:13.907Z,99365.09
2023-01-26T11:58:53.432Z,99355.50
2023-01-26T12:00:37.765Z,99367.69
2023-01-26T12:02:27.776Z,99362.50
2023-01-26T12:04:01.325Z,99354.78
2023-01-26T12:05:43.335Z,99361.72
2023-01-26T12:07:24.265Z,99354.75
2023-01-26T12:09:02.966Z,99352.16
2023-01-26T12:10:46.751Z,99355.75
2023-01-26T12:12:27.672Z,99367.03
2023-01-26T12:14:09.348Z,99368.78
2023-01-26T12:15:49.872Z,99357.44
2023-01-26T12:17:33.150Z,99348.75
2023-01-26T12:19:14.533Z,99344.25
2023-01-26T12:20:51.952Z,99352.00
2023-01-26T12:22:33.224Z,99353.69
2023-01-26T12:24:35.797Z,99347.50
2023-01-26T12:26:12.072Z,99344.88
2023-01-26T12:27:51.280Z,99332.69
2023-01-26T12:29:29.894Z,99332.72
2023-01-26T12:31:10.732Z,99339.78
2023-01-26T12:32:43.993Z,99331.91
2023-01-26T12:34:17.453Z,99330.13
2023-01-26T12:36:06.022Z,99322.22
2023-01-26T12:37:48.793Z,99322.25
2023-01-26T12:39:29.679Z,99318.69
2023-01-26T12:41:11.829Z,99320.53
2023-01-26T12:42:50.812Z,99317.88
2023-01-26T12:44:34.450Z,99321.44
2023-01-26T12:46:09.290Z,99317.97
2023-01-26T12:47:46.877Z,99314.53
2023-01-26T12:49:25.176Z,99317.94
2023-01-26T12:51:03.963Z,99312.75
2023-01-26T12:52:44.067Z,99312.75
2023-01-26T12:54:23.256Z,99312.72
2023-01-26T12:56:04.715Z,99317.13
2023-01-26T12:57:48.898Z,99309.28
2023-01-26T12:59:46.640Z,99307.59
2023-01-26T13:01:25.177Z,99315.34
2023-01-26T13:03:03.571Z,99305.75
2023-01-26T13:04:37.598Z,99303.97
2023-01-26T13:06:21.819Z,99304.84
2023-01-26T13:07:55.080Z,99293.50
2023-01-26T13:09:28.736Z,99311.00
2023-01-26T13:11:04.722Z,99307.47
2023-01-26T13:12:47.876Z,99301.34
2023-01-26T13:14:32.151Z,99291.72
2023-01-26T13:16:34.506Z,99295.16
2023-01-26T13:18:13.528Z,99297.81
2023-01-26T13:19:54.706Z,99292.63
2023-01-26T13:21:29.223Z,99287.41
2023-01-26T13:23:02.438Z,99281.34
2023-01-26T13:24:46.988Z,99279.66
2023-01-26T13:26:26.535Z,99284.16
2023-01-26T13:28:02.269Z,99281.53
2023-01-26T13:29:36.598Z,99279.75
2023-01-26T13:31:10.617Z,99271.84
2023-01-26T13:32:54.515Z,99269.22
2023-01-26T13:34:32.347Z,99271.00
2023-01-26T13:36:13.344Z,99276.22
2023-01-26T13:37:54.512Z,99271.81
2023-01-26T13:39:32.247Z,99264.97
2023-01-26T13:41:10.632Z,99274.53
2023-01-26T13:42:55.224Z,99258.75
2023-01-26T13:44:38.639Z,99265.72
2023-01-26T13:46:17.509Z,99265.63
2023-01-26T13:47:53.367Z,99271.75
2023-01-26T13:49:28.681Z,99264.72
2023-01-26T13:51:03.761Z,99253.34
2023-01-26T13:52:43.720Z,99264.59
2023-01-26T13:54:17.970Z,99257.66
2023-01-26T13:55:56.329Z,99262.03
2023-01-26T13:57:31.842Z,99251.56
2023-01-26T13:59:16.097Z,99255.88
2023-01-26T14:01:01.563Z,99248.88
2023-01-26T14:02:38.852Z,99249.78
2023-01-26T14:04:16.576Z,99248.13
2023-01-26T14:05:54.301Z,99255.03
2023-01-26T14:07:29.740Z,99245.38
2023-01-26T14:09:05.241Z,99228.84
2023-01-26T14:10:43.535Z,99231.41
2023-01-26T14:12:22.941Z,99221.81
2023-01-26T14:13:58.479Z,99218.44
2023-01-26T14:15:35.065Z,99216.81
2023-01-26T14:17:26.761Z,99211.72
2023-01-26T14:19:08.447Z,99217.97
2023-01-26T14:20:42.173Z,99197.25
2023-01-26T14:22:15.730Z,99214.66
2023-01-26T14:23:56.411Z,99206.81
2023-01-26T14:25:29.822Z,99212.09
2023-01-26T14:27:03.967Z,99207.75
2023-01-26T14:28:42.167Z,99205.97
2023-01-26T14:30:28.012Z,99208.56
2023-01-26T14:32:01.862Z,99203.25
2023-01-26T14:33:38.488Z,99199.81
2023-01-26T14:35:22.709Z,99202.50
2023-01-26T14:37:13.265Z,99197.38
2023-01-26T14:38:48.745Z,99200.00
2023-01-26T14:40:24.012Z,99191.31
2023-01-26T14:41:57.708Z,99200.91
2023-01-26T14:43:31.086Z,99196.50
2023-01-26T14:45:06.095Z,99197.31
2023-01-26T14:46:51.718Z,99193.91
2023-01-26T14:48:30.686Z,99177.31
2023-01-26T14:50:09.373Z,99194.63
2023-01-26T14:51:45.595Z,99184.16
2023-01-26T14:53:21.190Z,99172.91
2023-01-26T14:54:55.448Z,99171.97
2023-01-26T14:56:35.689Z,99174.59
2023-01-26T14:58:16.966Z,99172.91
2023-01-26T14:59:52.913Z,99161.69
2023-01-26T15:01:28.077Z,99166.91
2023-01-26T15:03:06.111Z,99166.84
2023-01-26T15:04:42.212Z,99163.41
2023-01-26T15:06:23.987Z,99166.03
2023-01-26T15:07:58.530Z,99146.03
2023-01-26T15:09:32.847Z,99146.94
2023-01-26T15:11:32.040Z,99149.59
2023-01-26T15:13:08.998Z,99137.47
2023-01-26T15:14:50.887Z,99150.44
2023-01-26T15:16:25.654Z,99150.53
2023-01-26T15:18:03.232Z,99146.16
2023-01-26T15:19:42.908Z,99146.25
2023-01-26T15:21:23.774Z,99139.34
2023-01-26T15:22:58.781Z,99144.63
2023-01-26T15:24:31.965Z,99151.53
2023-01-26T15:26:07.218Z,99153.34
2023-01-26T15:27:40.616Z,99143.88
2023-01-26T15:29:25.003Z,99142.16
2023-01-26T15:30:58.553Z,99143.16
2023-01-26T15:32:38.293Z,99165.88
2023-01-26T15:34:36.467Z,99146.72
2023-01-26T15:36:25.882Z,99132.97
2023-01-26T15:38:03.665Z,99145.19
2023-01-26T15:39:38.314Z,99148.84
2023-01-26T15:41:10.651Z,99148.06
2023-01-26T15:42:43.752Z,99142.84
2023-01-26T15:44:18.911Z,99143.72
2023-01-26T15:45:54.273Z,99142.00
2023-01-26T15:47:27.446Z,99145.53
2023-01-26T15:49:00.681Z,99139.44
2023-01-26T15:50:33.926Z,99146.34
2023-01-26T15:52:15.419Z,99136.78
2023-01-26T15:53:49.106Z,99122.09
2023-01-26T15:55:26.077Z,99133.34
2023-01-26T15:56:59.474Z,99126.41
2023-01-26T15:58:35.071Z,99132.47
2023-01-26T16:00:13.757Z,99149.00
2023-01-26T16:01:46.969Z,99140.25
2023-01-26T16:03:22.483Z,99136.81
2023-01-26T16:04:56.134Z,99135.09
2023-01-26T16:06:31.778Z,99131.59
2023-01-26T16:08:06.538Z,99138.53
2023-01-26T16:09:40.003Z,99131.63
2023-01-26T16:11:14.643Z,99131.72
2023-01-26T16:12:50.822Z,99130.00
2023-01-26T16:14:24.030Z,99129.97
2023-01-26T16:15:57.448Z,99122.19
2023-01-26T16:17:30.863Z,99125.63
2023-01-26T16:19:04.083Z,99118.69
2023-01-26T16:20:39.576Z,99114.31
2023-01-26T16:22:13.910Z,99107.44
2023-01-26T16:23:49.218Z,99119.56
2023-01-26T16:25:26.533Z,99107.34
2023-01-26T16:26:59.665Z,99112.56
2023-01-26T16:28:32.894Z,99115.13
2023-01-26T16:30:07.300Z,99109.03
2023-01-26T16:31:41.468Z,99104.63
2023-01-26T16:33:16.368Z,99122.03
2023-01-26T16:34:49.491Z,99111.59
2023-01-26T16:36:23.352Z,99106.41
2023-01-26T16:37:56.573Z,99106.41
2023-01-26T16:39:31.250Z,99100.31
2023-01-26T16:41:04.463Z,99107.31
2023-01-26T16:42:41.788Z,99100.38
2023-01-26T16:44:17.476Z,99096.84
2023-01-26T16:45:50.948Z,99096.88
2023-01-26T16:47:24.167Z,99093.44
2023-01-26T16:48:58.379Z,99098.69
2023-01-26T16:50:31.823Z,99088.28
2023-01-26T16:52:05.221Z,99079.59
2023-01-26T16:53:38.382Z,99082.22
2023-01-26T16:55:16.146Z,99077.84
2023-01-26T16:56:49.578Z,99079.66
2023-01-26T16:58:26.193Z,99083.19
2023-01-26T16:59:59.382Z,99079.78
2023-01-26T17:01:36.497Z,99064.19
2023-01-26T17:03:13.207Z,99073.72
2023-01-26T17:04:46.347Z,99069.41
2023-01-26T17:06:20.808Z,99079.00
2023-01-26T17:07:54.235Z,99077.28
2023-01-26T17:09:28.153Z,99065.16
2023-01-26T17:11:03.094Z,99078.13
2023-01-26T17:12:36.309Z,99076.38
2023-01-26T17:14:10.642Z,99079.81
2023-01-26T17:15:46.048Z,99072.88
2023-01-26T17:17:19.448Z,99076.34
2023-01-26T17:18:53.543Z,99072.91
2023-01-26T17:20:27.493Z,99072.91
2023-01-26T17:22:00.980Z,99076.41
2023-01-26T17:23:34.440Z,99079.91
2023-01-26T17:25:08.470Z,99076.41
2023-01-26T17:26:43.540Z,99078.13
2023-01-26T17:28:16.976Z,99072.94
2023-01-26T17:29:52.321Z,99064.25
2023-01-26T17:31:27.010Z,99069.47
2023-01-26T17:33:00.714Z,99069.44
2023-01-26T17:34:34.522Z,99062.47
2023-01-26T17:36:09.265Z,99058.09
2023-01-26T17:37:42.612Z,99054.59
2023-01-26T17:39:18.636Z,99053.69
2023-01-26T17:40:56.239Z,99054.53
2023-01-26T17:42:32.693Z,99062.31
2023-01-26T17:44:06.085Z,99060.53
2023-01-26T17:45:39.499Z,99057.94
2023-01-26T17:47:13.222Z,99055.31
2023-01-26T17:48:47.506Z,99057.03
2023-01-26T17:50:20.774Z,99063.13
2023-01-26T17:51:54.437Z,99061.44
2023-01-26T17:53:28.279Z,99057.09
2023-01-26T17:55:01.525Z,99053.63
2023-01-26T17:56:34.878Z,99057.13
2023-01-26T17:58:11.124Z,99045.00
2023-01-26T17:59:44.481Z,99051.91
2023-01-26T18:01:18.152Z,99038.09
2023-01-26T18:02:51.744Z,99050.22
2023-01-26T18:04:25.261Z,99044.13
2023-01-26T18:05:58.984Z,99042.38
2023-01-26T18:07:32.316Z,99044.09
2023-01-26T18:09:05.754Z,99046.72
2023-01-26T18:10:39.112Z,99038.88
2023-01-26T18:12:12.801Z,99038.88
2023-01-26T18:13:47.801Z,99035.44
2023-01-26T18:15:21.310Z,99031.09
2023-01-26T18:16:54.969Z,99029.38
2023-01-26T18:18:31.841Z,99029.34
2023-01-26T18:20:05.302Z,99024.13
2023-01-26T18:21:38.688Z,99027.63
2023-01-26T18:23:12.216Z,99024.97
2023-01-26T18:24:45.844Z,99018.91
2023-01-26T18:26:21.681Z,99008.50
2023-01-26T18:27:56.058Z,99006.78
2023-01-26T18:29:31.234Z,99010.22
2023-01-26T18:31:10.986Z,98993.72
2023-01-26T18:32:44.325Z,98992.84
2023-01-26T18:34:17.573Z,99003.28
2023-01-26T18:35:50.954Z,99012.03
2023-01-26T18:37:24.565Z,99004.22
2023-01-26T18:39:00.392Z,98992.03
2023-01-26T18:40:33.925Z,98999.78
2023-01-26T18:42:07.704Z,98999.78
2023-01-26T18:43:42.206Z,99001.56
2023-01-26T18:45:17.007Z,98991.97
2023-01-26T18:46:50.451Z,98998.03
2023-01-26T18:48:24.114Z,99000.66
2023-01-26T18:49:57.909Z,98993.75
2023-01-26T18:51:32.834Z,98992.09
2023-01-26T18:53:06.211Z,98992.09
2023-01-26T18:54:39.726Z,98992.97
2023-01-26T18:56:15.445Z,98989.47
2023-01-26T18:57:50.071Z,98987.72
2023-01-26T18:59:23.369Z,98986.84
2023-01-26T19:00:58.760Z,98975.53
2023-01-26T19:02:33.884Z,98979.03